createdAt,value
2018-12-20T00:01:28.776Z,56.37
2018-12-20T00:03:57.793Z,54.13
2018-12-20T00:06:26.970Z,54.80
2018-12-20T00:08:55.980Z,53.80
2018-12-20T00:11:24.808Z,51.87
2018-12-20T00:13:54.141Z,48.53
2018-12-20T00:16:22.967Z,47.53
2018-12-20T00:18:52.316Z,43.37
2018-12-20T00:21:21.292Z,41.10
2018-12-20T00:23:50.279Z,39.10
2018-12-20T00:26:19.141Z,40.63
2018-12-20T00:28:48.280Z,38.10
2018-12-20T00:31:17.108Z,37.60
2018-12-20T00:33:46.019Z,39.27
2018-12-20T00:36:15.345Z,37.47
2018-12-20T00:38:44.412Z,36.60
2018-12-20T00:41:13.427Z,39.70
2018-12-20T00:43:42.425Z,41.70
2018-12-20T00:46:11.460Z,38.87
2018-12-20T00:48:40.399Z,38.87
2018-12-20T00:51:09.416Z,41.10
2018-12-20T00:53:38.441Z,40.53
2018-12-20T00:56:07.424Z,44.83
2018-12-20T00:58:36.556Z,42.60
2018-12-20T01:01:05.715Z,44.23
2018-12-20T01:03:34.945Z,44.70
2018-12-20T01:06:03.905Z,41.83
2018-12-20T01:08:32.936Z,39.50
2018-12-20T01:11:02.264Z,36.23
2018-12-20T01:13:31.504Z,36.10
2018-12-20T01:16:00.506Z,35.20
2018-12-20T01:18:29.723Z,34.17
2018-12-20T01:20:58.747Z,33.00
2018-12-20T01:26:06.846Z,35.17
2018-12-20T01:28:35.873Z,36.13
2018-12-20T01:31:04.799Z,32.43
2018-12-20T01:33:33.613Z,33.63
2018-12-20T01:36:02.820Z,33.03
2018-12-20T01:38:32.125Z,28.60
2018-12-20T01:41:01.013Z,28.43
2018-12-20T01:43:29.933Z,28.60
2018-12-20T01:45:59.018Z,26.93
2018-12-20T01:48:29.058Z,29.23
2018-12-20T01:50:58.330Z,28.40
2018-12-20T01:53:27.401Z,26.23
2018-12-20T01:55:56.452Z,21.93
2018-12-20T01:58:25.567Z,21.90
2018-12-20T02:00:54.553Z,21.43
2018-12-20T02:03:23.804Z,22.50
2018-12-20T02:05:52.826Z,20.47
2018-12-20T02:08:21.800Z,20.30
2018-12-20T02:10:50.843Z,17.13
2018-12-20T02:13:19.981Z,17.53
2018-12-20T02:15:49.124Z,18.83
2018-12-20T02:18:18.330Z,17.50
2018-12-20T02:20:47.357Z,17.90
2018-12-20T02:23:16.193Z,19.43
2018-12-20T02:25:45.241Z,23.43
2018-12-20T02:28:14.400Z,22.03
2018-12-20T02:30:43.509Z,21.07
2018-12-20T02:33:12.327Z,20.63
2018-12-20T02:35:41.304Z,21.40
2018-12-20T02:38:10.600Z,21.57
2018-12-20T02:40:39.627Z,20.80
2018-12-20T02:43:08.588Z,19.57
2018-12-20T02:45:37.488Z,19.97
2018-12-20T02:48:06.601Z,20.73
2018-12-20T02:50:35.665Z,20.80
2018-12-20T02:53:04.713Z,20.23
2018-12-20T02:55:33.732Z,20.40
2018-12-20T02:58:02.555Z,20.03
2018-12-20T03:00:31.504Z,19.37
2018-12-20T03:03:00.648Z,18.70
2018-12-20T03:05:29.469Z,18.60
2018-12-20T03:07:58.576Z,20.67
2018-12-20T03:10:27.423Z,18.27
2018-12-20T03:12:56.683Z,20.47
2018-12-20T03:15:25.613Z,19.03
2018-12-20T03:17:54.946Z,20.50
2018-12-20T03:20:24.322Z,19.53
2018-12-20T03:22:53.332Z,21.10
2018-12-20T03:25:22.361Z,22.77
2018-12-20T03:27:51.591Z,21.43
2018-12-20T03:30:20.735Z,20.83
2018-12-20T03:32:49.916Z,22.97
2018-12-20T03:35:18.856Z,22.73
2018-12-20T03:37:47.894Z,22.00
2018-12-20T03:40:16.921Z,22.37
2018-12-20T03:42:46.017Z,23.13
2018-12-20T03:45:14.992Z,21.63
2018-12-20T03:47:44.242Z,22.90
2018-12-20T03:50:13.233Z,22.57
2018-12-20T03:52:42.448Z,21.57
2018-12-20T03:55:11.758Z,24.27
2018-12-20T03:57:40.684Z,21.60
2018-12-20T04:00:09.934Z,21.73
2018-12-20T04:02:38.968Z,22.07
2018-12-20T04:05:08.350Z,22.90
2018-12-20T04:07:38.207Z,24.07
2018-12-20T04:10:07.566Z,23.50
2018-12-20T04:12:36.960Z,21.20
2018-12-20T04:15:06.154Z,23.97
2018-12-20T04:17:35.329Z,25.07
2018-12-20T04:20:04.767Z,24.57
2018-12-20T04:22:33.866Z,24.47
2018-12-20T04:25:02.756Z,21.83
2018-12-20T04:27:31.998Z,20.27
2018-12-20T04:30:01.588Z,20.27
2018-12-20T04:32:30.708Z,18.60
2018-12-20T04:34:59.611Z,20.37
2018-12-20T04:37:28.562Z,20.17
2018-12-20T04:39:57.459Z,20.30
2018-12-20T04:42:26.498Z,21.67
2018-12-20T04:44:55.393Z,23.33
2018-12-20T04:47:24.305Z,23.80
2018-12-20T04:49:53.220Z,26.77
2018-12-20T04:52:22.168Z,24.70
2018-12-20T04:54:51.266Z,25.83
2018-12-20T04:57:20.310Z,23.17
2018-12-20T04:59:49.557Z,21.43
2018-12-20T05:02:18.766Z,22.03
2018-12-20T05:04:47.748Z,20.37
2018-12-20T05:07:17.077Z,20.67
2018-12-20T05:09:46.272Z,23.57
2018-12-20T05:12:15.326Z,23.83
2018-12-20T05:14:44.322Z,23.50
2018-12-20T05:17:13.472Z,22.50
2018-12-20T05:19:42.355Z,24.53
2018-12-20T05:22:11.641Z,23.43
2018-12-20T05:24:40.601Z,24.43
2018-12-20T05:27:09.637Z,25.33
2018-12-20T05:29:38.604Z,23.83
2018-12-20T05:32:07.410Z,27.40
2018-12-20T05:34:36.316Z,26.33
2018-12-20T05:37:05.146Z,26.17
2018-12-20T05:39:34.183Z,28.63
2018-12-20T05:42:03.123Z,38.87
2018-12-20T05:44:32.238Z,38.07
2018-12-20T05:47:01.299Z,44.27
2018-12-20T05:49:30.256Z,46.63
2018-12-20T05:51:59.200Z,53.07
2018-12-20T05:54:28.168Z,51.80
2018-12-20T05:56:57.210Z,44.73
2018-12-20T05:59:26.297Z,74.67
2018-12-20T06:01:55.257Z,68.67
2018-12-20T06:04:24.219Z,67.97
2018-12-20T06:06:53.336Z,63.57
2018-12-20T06:09:22.909Z,58.07
2018-12-20T06:11:51.838Z,81.07
2018-12-20T06:14:20.840Z,53.47
2018-12-20T06:16:49.937Z,93.00
2018-12-20T06:19:18.963Z,59.60
2018-12-20T06:21:47.966Z,51.77
2018-12-20T06:24:16.997Z,45.70
2018-12-20T06:26:46.028Z,45.53
2018-12-20T06:29:14.988Z,58.50
2018-12-20T06:31:43.944Z,64.97
2018-12-20T06:34:12.850Z,72.10
2018-12-20T06:36:41.803Z,69.00
2018-12-20T06:39:10.612Z,64.00
2018-12-20T06:41:43.336Z,56.30
2018-12-20T06:44:12.489Z,52.97
2018-12-20T06:46:46.909Z,49.20
2018-12-20T06:49:15.942Z,47.37
2018-12-20T06:51:44.976Z,46.87
2018-12-20T06:54:13.898Z,46.43
2018-12-20T06:56:42.870Z,49.83
2018-12-20T06:59:11.733Z,51.27
2018-12-20T07:01:40.559Z,48.50
2018-12-20T07:04:09.480Z,46.37
2018-12-20T07:06:38.409Z,45.07
2018-12-20T07:09:09.164Z,38.80
2018-12-20T07:11:38.442Z,39.23
2018-12-20T07:14:07.363Z,35.30
2018-12-20T07:16:36.387Z,33.73
2018-12-20T07:19:05.429Z,31.60
2018-12-20T07:21:34.477Z,32.37
2018-12-20T07:24:03.421Z,31.63
2018-12-20T07:26:32.329Z,33.47
2018-12-20T07:29:01.281Z,40.93
2018-12-20T07:31:30.101Z,32.43
2018-12-20T07:33:59.042Z,30.90
2018-12-20T07:36:27.950Z,31.27
2018-12-20T07:38:56.865Z,28.33
2018-12-20T07:41:25.705Z,30.17
2018-12-20T07:43:54.666Z,30.83
2018-12-20T07:46:23.521Z,31.60
2018-12-20T07:48:52.445Z,32.40
2018-12-20T07:51:21.448Z,35.63
2018-12-20T07:53:50.253Z,34.90
2018-12-20T07:56:19.173Z,34.97
2018-12-20T07:58:48.103Z,32.67
2018-12-20T08:01:17.052Z,33.40
2018-12-20T08:03:46.013Z,34.47
2018-12-20T08:06:14.832Z,33.10
2018-12-20T08:08:43.847Z,35.73
2018-12-20T08:11:12.692Z,38.73
2018-12-20T08:13:41.516Z,39.77
2018-12-20T08:16:10.412Z,38.50
2018-12-20T08:18:39.657Z,44.10
2018-12-20T08:21:08.673Z,54.97
2018-12-20T08:23:37.498Z,49.93
2018-12-20T08:26:06.413Z,47.10
2018-12-20T08:28:35.335Z,44.80
2018-12-20T08:31:04.260Z,44.00
2018-12-20T08:33:33.189Z,52.90
2018-12-20T08:36:02.205Z,54.77
2018-12-20T08:38:31.120Z,50.50
2018-12-20T08:40:59.945Z,53.53
2018-12-20T08:43:28.803Z,51.00
2018-12-20T08:45:57.722Z,56.03
2018-12-20T08:48:26.632Z,61.47
2018-12-20T08:50:55.691Z,65.67
2018-12-20T08:53:24.591Z,67.47
2018-12-20T08:55:53.408Z,65.00
2018-12-20T08:58:22.337Z,68.07
2018-12-20T09:00:51.250Z,65.43
2018-12-20T09:03:20.100Z,59.07
2018-12-20T09:05:49.025Z,57.23
2018-12-20T09:08:18.458Z,49.53
2018-12-20T09:10:47.400Z,53.33
2018-12-20T09:13:16.289Z,51.53
2018-12-20T09:15:45.440Z,45.47
2018-12-20T09:18:14.476Z,42.73
2018-12-20T09:20:43.397Z,38.27
2018-12-20T09:23:12.237Z,43.90
2018-12-20T09:25:41.097Z,41.53
2018-12-20T09:28:09.927Z,39.70
2018-12-20T09:30:38.728Z,40.03
2018-12-20T09:33:08.259Z,46.20
2018-12-20T09:35:37.081Z,37.57
2018-12-20T09:38:06.005Z,26.63
2018-12-20T09:40:34.924Z,41.57
2018-12-20T09:43:04.002Z,30.90
2018-12-20T09:45:32.835Z,30.27
2018-12-20T09:48:05.966Z,26.20
2018-12-20T09:50:35.072Z,24.87
2018-12-20T09:53:04.417Z,22.83
2018-12-20T09:55:33.330Z,28.83
2018-12-20T09:58:02.343Z,22.17
2018-12-20T10:00:31.309Z,24.23
2018-12-20T10:03:00.224Z,26.77
2018-12-20T10:05:29.065Z,27.90
2018-12-20T10:07:58.109Z,24.93
2018-12-20T10:10:26.901Z,23.43
2018-12-20T10:12:55.721Z,25.27
2018-12-20T10:15:24.721Z,25.37
2018-12-20T10:17:53.790Z,33.13
2018-12-20T10:20:22.690Z,32.63
2018-12-20T10:22:51.989Z,32.17
2018-12-20T10:25:20.814Z,29.53
2018-12-20T10:27:49.740Z,30.20
2018-12-20T10:30:18.559Z,30.30
2018-12-20T10:32:47.489Z,31.70
2018-12-20T10:35:16.473Z,25.47
2018-12-20T10:37:45.305Z,22.27
2018-12-20T10:40:14.109Z,22.20
2018-12-20T10:42:43.053Z,22.27
2018-12-20T10:45:12.013Z,22.07
2018-12-20T10:47:41.057Z,20.37
2018-12-20T10:50:10.395Z,20.60
2018-12-20T10:52:39.332Z,22.23
2018-12-20T10:55:08.309Z,21.60
2018-12-20T10:57:37.281Z,21.80
2018-12-20T11:00:07.457Z,21.70
2018-12-20T11:02:42.044Z,21.20
2018-12-20T11:05:16.644Z,22.60
2018-12-20T11:07:51.206Z,24.17
2018-12-20T11:10:26.453Z,35.40
2018-12-20T11:12:55.564Z,27.50
2018-12-20T11:15:24.632Z,24.00
2018-12-20T11:17:53.551Z,22.43
2018-12-20T11:20:22.608Z,23.33
2018-12-20T11:22:51.709Z,22.27
2018-12-20T11:25:20.612Z,24.07
2018-12-20T11:27:49.430Z,24.53
2018-12-20T11:30:18.245Z,25.10
2018-12-20T11:32:47.168Z,35.23
2018-12-20T11:35:16.176Z,35.93
2018-12-20T11:37:45.108Z,35.63
2018-12-20T11:40:13.995Z,37.53
2018-12-20T11:42:42.841Z,38.30
2018-12-20T11:45:11.868Z,38.80
2018-12-20T11:47:45.896Z,38.47
2018-12-20T11:50:15.335Z,40.07
2018-12-20T11:52:44.361Z,38.30
2018-12-20T11:55:13.416Z,39.53
2018-12-20T11:57:42.367Z,40.30
2018-12-20T12:00:11.444Z,38.73
2018-12-20T12:02:40.444Z,40.13
2018-12-20T12:05:09.340Z,42.00
2018-12-20T12:07:38.396Z,39.03
2018-12-20T12:10:08.008Z,41.87
2018-12-20T12:12:37.042Z,41.30
2018-12-20T12:15:06.818Z,40.47
2018-12-20T12:17:35.790Z,40.93
2018-12-20T12:20:05.689Z,42.33
2018-12-20T12:22:34.743Z,38.73
2018-12-20T12:25:04.133Z,40.50
2018-12-20T12:27:33.204Z,42.70
2018-12-20T12:30:02.712Z,43.70
2018-12-20T12:32:31.949Z,46.13
2018-12-20T12:35:00.897Z,44.17
2018-12-20T12:37:29.855Z,49.00
2018-12-20T12:39:59.013Z,49.13
2018-12-20T12:42:27.946Z,50.97
2018-12-20T12:44:56.892Z,46.70
2018-12-20T12:47:31.306Z,47.07
2018-12-20T12:50:00.442Z,49.33
2018-12-20T12:52:29.396Z,44.43
2018-12-20T12:54:58.485Z,46.53
2018-12-20T12:57:27.382Z,44.47
2018-12-20T12:59:56.386Z,47.57
2018-12-20T13:02:25.430Z,42.37
2018-12-20T13:04:54.385Z,44.67
2018-12-20T13:07:23.346Z,42.50
2018-12-20T13:09:52.910Z,47.57
2018-12-20T13:12:21.986Z,47.50
2018-12-20T13:14:51.258Z,46.37
2018-12-20T13:17:20.316Z,48.93
2018-12-20T13:19:49.482Z,47.30
2018-12-20T13:22:18.717Z,46.93
2018-12-20T13:24:48.349Z,48.07
2018-12-20T13:27:17.371Z,48.93
2018-12-20T13:29:46.525Z,48.20
2018-12-20T13:32:15.481Z,44.67
2018-12-20T13:34:44.606Z,44.80
2018-12-20T13:37:15.920Z,43.33
2018-12-20T13:39:44.668Z,42.80
2018-12-20T13:42:13.726Z,39.03
2018-12-20T13:44:42.805Z,40.60
2018-12-20T13:47:11.865Z,38.87
2018-12-20T13:49:41.233Z,37.23
2018-12-20T13:52:10.252Z,39.10
2018-12-20T13:54:39.703Z,39.13
2018-12-20T13:57:08.956Z,37.97
2018-12-20T13:59:38.306Z,36.43
2018-12-20T14:02:07.605Z,38.00
2018-12-20T14:04:36.670Z,39.90
2018-12-20T14:07:05.857Z,38.40
2018-12-20T14:09:35.181Z,36.50
2018-12-20T14:12:04.558Z,39.20
2018-12-20T14:14:34.310Z,40.23
2018-12-20T14:17:03.311Z,38.90
2018-12-20T14:19:32.709Z,38.33
2018-12-20T14:22:02.456Z,39.20
2018-12-20T14:24:31.885Z,38.07
2018-12-20T14:27:00.912Z,41.80
2018-12-20T14:29:30.205Z,42.57
2018-12-20T14:31:59.258Z,42.57
2018-12-20T14:34:28.409Z,44.53
2018-12-20T14:36:57.396Z,42.73
2018-12-20T14:39:26.445Z,45.80
2018-12-20T14:41:56.147Z,46.73
2018-12-20T14:44:25.084Z,45.47
2018-12-20T14:46:54.325Z,42.23
2018-12-20T14:49:23.310Z,44.13
2018-12-20T14:51:52.312Z,42.80
2018-12-20T14:54:21.772Z,40.77
2018-12-20T14:56:51.277Z,38.37
2018-12-20T14:59:20.353Z,40.60
2018-12-20T15:01:49.512Z,41.67
2018-12-20T15:04:19.257Z,41.13
2018-12-20T15:06:48.708Z,42.87
2018-12-20T15:09:17.702Z,41.20
2018-12-20T15:11:47.672Z,42.67
2018-12-20T15:14:16.836Z,41.60
2018-12-20T15:16:45.823Z,41.47
2018-12-20T15:19:14.773Z,41.20
2018-12-20T15:21:43.993Z,40.17
2018-12-20T15:24:13.246Z,40.30
2018-12-20T15:26:44.463Z,40.60
2018-12-20T15:29:14.633Z,46.30
2018-12-20T15:31:53.064Z,50.57
2018-12-20T15:34:16.163Z,53.70
2018-12-20T15:36:45.916Z,49.30
2018-12-20T15:39:15.297Z,51.20
2018-12-20T15:41:44.258Z,44.63
2018-12-20T15:44:13.217Z,46.03
2018-12-20T15:46:42.154Z,45.77
2018-12-20T15:49:11.353Z,45.57
2018-12-20T15:51:40.313Z,43.40
2018-12-20T15:54:09.803Z,44.43
2018-12-20T15:56:38.989Z,45.80
2018-12-20T15:59:08.256Z,45.90
2018-12-20T16:01:38.040Z,46.20
2018-12-20T16:04:07.013Z,49.77
2018-12-20T16:06:36.061Z,48.27
2018-12-20T16:09:06.998Z,50.73
2018-12-20T16:11:36.236Z,49.33
2018-12-20T16:14:16.711Z,49.23
2018-12-20T16:16:45.965Z,52.17
2018-12-20T16:19:14.919Z,53.27
2018-12-20T16:21:43.889Z,54.60
2018-12-20T16:24:13.496Z,55.07
2018-12-20T16:26:42.445Z,56.37
2018-12-20T16:29:11.689Z,52.93
2018-12-20T16:31:41.537Z,52.87
2018-12-20T16:34:10.667Z,51.03
2018-12-20T16:36:40.016Z,52.77
2018-12-20T16:39:09.384Z,53.77
2018-12-20T16:41:38.445Z,52.90
2018-12-20T16:44:07.410Z,53.60
2018-12-20T16:46:36.496Z,51.10
2018-12-20T16:49:13.398Z,52.80
2018-12-20T16:51:36.929Z,55.00
2018-12-20T16:54:06.597Z,51.40
2018-12-20T16:56:35.764Z,52.10
2018-12-20T16:59:04.973Z,50.13
2018-12-20T17:01:34.160Z,50.13
2018-12-20T17:04:03.733Z,58.07
2018-12-20T17:06:32.577Z,59.77
2018-12-20T17:09:02.516Z,59.40
2018-12-20T17:11:31.675Z,62.10
2018-12-20T17:14:00.643Z,60.70
2018-12-20T17:16:29.581Z,55.97
2018-12-20T17:18:58.730Z,54.63
2018-12-20T17:21:27.873Z,55.87
2018-12-20T17:23:56.734Z,62.80
2018-12-20T17:26:25.799Z,60.70
2018-12-20T17:28:54.787Z,58.13
2018-12-20T17:31:23.772Z,59.50
2018-12-20T17:33:53.312Z,57.37
2018-12-20T17:36:22.273Z,64.50
2018-12-20T17:38:51.232Z,63.47
2018-12-20T17:41:20.481Z,63.33
2018-12-20T17:43:49.541Z,58.30
2018-12-20T17:46:18.632Z,60.17
2018-12-20T17:48:47.584Z,60.47
2018-12-20T17:51:16.519Z,61.77
2018-12-20T17:53:45.592Z,58.53
2018-12-20T17:56:17.521Z,59.37
2018-12-20T17:58:46.492Z,58.00
2018-12-20T18:01:15.391Z,59.27
2018-12-20T18:03:44.484Z,60.20
2018-12-20T18:06:13.678Z,60.33
2018-12-20T18:08:43.091Z,62.93
2018-12-20T18:11:12.475Z,61.90
2018-12-20T18:13:41.468Z,63.00
2018-12-20T18:16:10.855Z,60.90
2018-12-20T18:18:39.855Z,60.33
2018-12-20T18:21:08.722Z,57.27
2018-12-20T18:23:37.834Z,57.40
2018-12-20T18:26:06.844Z,60.43
2018-12-20T18:28:35.852Z,59.90
2018-12-20T18:31:04.807Z,63.27
2018-12-20T18:33:33.952Z,68.20
2018-12-20T18:36:03.053Z,78.87
2018-12-20T18:38:32.345Z,77.67
2018-12-20T18:41:01.403Z,68.73
2018-12-20T18:43:30.357Z,66.27
2018-12-20T18:45:59.749Z,62.37
2018-12-20T18:48:28.957Z,61.40
2018-12-20T18:50:57.834Z,61.43
2018-12-20T18:53:27.064Z,61.23
2018-12-20T18:55:56.016Z,62.70
2018-12-20T18:58:24.852Z,62.33
2018-12-20T19:00:53.784Z,56.30
2018-12-20T19:03:23.078Z,63.00
2018-12-20T19:05:51.931Z,63.90
2018-12-20T19:08:21.042Z,70.83
2018-12-20T19:10:50.110Z,73.33
2018-12-20T19:13:19.273Z,77.57
2018-12-20T19:15:48.336Z,67.77
2018-12-20T19:18:17.702Z,62.23
2018-12-20T19:20:46.745Z,57.40
2018-12-20T19:23:15.605Z,66.50
2018-12-20T19:25:44.682Z,64.30
2018-12-20T19:28:13.837Z,65.63
2018-12-20T19:30:42.893Z,62.73
2018-12-20T19:33:11.834Z,60.27
2018-12-20T19:35:40.809Z,56.87
2018-12-20T19:38:09.877Z,57.63
2018-12-20T19:40:39.074Z,62.03
2018-12-20T19:43:08.146Z,63.37
2018-12-20T19:45:45.803Z,62.70
2018-12-20T19:48:08.100Z,61.23
2018-12-20T19:50:37.571Z,65.20
2018-12-20T19:53:06.530Z,63.83
2018-12-20T19:55:35.485Z,62.03
2018-12-20T19:58:04.760Z,57.33
2018-12-20T20:00:34.513Z,61.83
2018-12-20T20:03:03.497Z,64.10
2018-12-20T20:05:32.589Z,56.87
2018-12-20T20:08:01.568Z,58.87
2018-12-20T20:10:30.528Z,55.70
2018-12-20T20:12:59.582Z,57.83
2018-12-20T20:15:29.272Z,55.17
2018-12-20T20:17:58.625Z,56.87
2018-12-20T20:20:27.865Z,52.40
2018-12-20T20:22:56.843Z,47.90
2018-12-20T20:25:25.900Z,48.43
2018-12-20T20:27:54.960Z,46.27
2018-12-20T20:30:24.016Z,48.20
2018-12-20T20:32:53.310Z,48.97
2018-12-20T20:35:22.247Z,48.80
2018-12-20T20:37:51.212Z,48.20
2018-12-20T20:40:20.272Z,47.27
2018-12-20T20:42:49.221Z,47.97
2018-12-20T20:45:18.084Z,48.60
2018-12-20T20:47:47.050Z,47.63
2018-12-20T20:50:22.409Z,49.20
2018-12-20T20:52:47.246Z,47.17
2018-12-20T20:55:16.175Z,48.77
2018-12-20T20:57:45.117Z,45.77
2018-12-20T21:00:14.090Z,48.97
2018-12-20T21:02:43.232Z,50.33
2018-12-20T21:05:12.485Z,51.37
2018-12-20T21:07:41.776Z,48.70
2018-12-20T21:10:11.819Z,52.30
2018-12-20T21:12:40.677Z,47.27
2018-12-20T21:15:11.145Z,50.07
2018-12-20T21:17:40.188Z,46.80
2018-12-20T21:20:11.277Z,47.03
2018-12-20T21:22:40.645Z,47.93
2018-12-20T21:25:09.627Z,49.57
2018-12-20T21:27:38.485Z,47.90
2018-12-20T21:30:09.066Z,47.63
2018-12-20T21:32:37.909Z,47.40
2018-12-20T21:35:07.766Z,43.37
2018-12-20T21:37:36.640Z,45.30
2018-12-20T21:40:06.486Z,48.30
2018-12-20T21:42:35.634Z,49.10
2018-12-20T21:45:05.995Z,49.47
2018-12-20T21:47:34.837Z,44.63
2018-12-20T21:50:04.789Z,43.87
2018-12-20T21:52:33.764Z,42.93
2018-12-20T21:55:02.896Z,41.50
2018-12-20T21:57:31.836Z,41.87
2018-12-20T22:00:01.423Z,39.17
2018-12-20T22:02:30.995Z,39.73
2018-12-20T22:04:59.962Z,40.47
2018-12-20T22:07:29.008Z,37.67
2018-12-20T22:09:57.935Z,37.00
2018-12-20T22:12:26.872Z,34.80
2018-12-20T22:14:55.724Z,33.73
2018-12-20T22:17:24.668Z,37.33
2018-12-20T22:19:58.618Z,36.60
2018-12-20T22:22:24.603Z,33.17
2018-12-20T22:24:53.603Z,33.80
2018-12-20T22:27:23.158Z,33.30
2018-12-20T22:29:52.111Z,36.47
2018-12-20T22:32:20.977Z,34.30
2018-12-20T22:34:49.826Z,35.50
2018-12-20T22:37:18.761Z,39.03
2018-12-20T22:39:47.592Z,33.70
2018-12-20T22:42:17.141Z,36.43
2018-12-20T22:44:45.984Z,37.37
2018-12-20T22:47:14.937Z,37.13
2018-12-20T22:49:43.920Z,35.70
2018-12-20T22:52:12.885Z,36.33
2018-12-20T22:54:41.757Z,38.13
2018-12-20T22:57:10.693Z,38.70
2018-12-20T22:59:39.624Z,38.53
2018-12-20T23:02:08.601Z,39.10
2018-12-20T23:04:37.721Z,39.93
2018-12-20T23:07:06.802Z,39.00
2018-12-20T23:09:35.949Z,37.07
2018-12-20T23:12:04.905Z,37.80
2018-12-20T23:14:33.925Z,39.53
2018-12-20T23:17:02.965Z,39.27
2018-12-20T23:19:31.902Z,36.87
2018-12-20T23:22:00.822Z,38.97
2018-12-20T23:24:29.781Z,41.27
2018-12-20T23:26:58.636Z,38.40
2018-12-20T23:29:27.585Z,41.67
2018-12-20T23:31:56.441Z,40.33
2018-12-20T23:34:25.490Z,40.27
2018-12-20T23:36:54.450Z,40.43
2018-12-20T23:39:23.409Z,38.57
2018-12-20T23:41:52.367Z,39.10
2018-12-20T23:44:21.297Z,38.10
2018-12-20T23:46:50.245Z,36.77
2018-12-20T23:49:19.188Z,35.23
2018-12-20T23:51:48.149Z,34.70
2018-12-20T23:54:17.214Z,32.70
2018-12-20T23:56:46.053Z,35.03
2018-12-20T23:59:14.983Z,35.43
